createdAt,value
2019-03-05T00:00:48.347Z,4.17
2019-03-05T00:03:17.333Z,3.50
2019-03-05T00:05:49.267Z,5.27
2019-03-05T00:08:20.687Z,3.87
2019-03-05T00:10:49.510Z,7.83
2019-03-05T00:13:18.488Z,3.57
2019-03-05T00:15:49.491Z,4.10
2019-03-05T00:18:21.123Z,4.30
2019-03-05T00:20:50.184Z,4.43
2019-03-05T00:26:38.164Z,5.27
2019-03-05T00:29:15.690Z,3.27
2019-03-05T00:31:47.382Z,4.63
2019-03-05T00:34:26.729Z,4.17
2019-03-05T00:40:10.461Z,4.37
2019-03-05T00:43:04.482Z,3.47
2019-03-05T00:45:48.768Z,3.37
2019-03-05T00:48:54.041Z,6.00
2019-03-05T00:51:39.587Z,3.03
2019-03-05T00:55:01.838Z,4.43
2019-03-05T00:57:41.492Z,3.03
2019-03-05T01:00:28.416Z,5.73
2019-03-05T01:03:27.749Z,4.43
2019-03-05T01:06:26.042Z,4.23
2019-03-05T01:08:57.547Z,3.83
2019-03-05T01:11:42.375Z,3.37
2019-03-05T01:14:12.227Z,5.97
2019-03-05T01:16:42.880Z,6.37
2019-03-05T01:19:12.159Z,6.27
2019-03-05T01:21:41.194Z,2.57
2019-03-05T01:24:12.160Z,4.63
2019-03-05T01:26:41.467Z,5.10
2019-03-05T01:29:11.886Z,6.23
2019-03-05T01:31:49.242Z,4.03
2019-03-05T01:34:25.598Z,4.07
2019-03-05T01:36:56.480Z,4.83
2019-03-05T01:39:37.159Z,6.10
2019-03-05T01:42:09.205Z,4.90
2019-03-05T01:44:39.660Z,6.10
2019-03-05T01:47:08.764Z,6.13
2019-03-05T01:49:37.671Z,5.10
2019-03-05T01:52:10.986Z,4.37
2019-03-05T01:54:42.511Z,9.27
2019-03-05T01:57:12.199Z,6.17
2019-03-05T01:59:41.169Z,5.70
2019-03-05T02:02:11.918Z,9.13
2019-03-05T02:04:42.155Z,3.40
2019-03-05T02:07:11.061Z,3.10
2019-03-05T02:09:48.383Z,8.23
2019-03-05T02:12:20.177Z,4.70
2019-03-05T02:14:49.074Z,3.60
2019-03-05T02:17:18.304Z,3.37
2019-03-05T02:19:47.871Z,4.43
2019-03-05T02:22:29.393Z,3.60
2019-03-05T02:25:06.477Z,5.53
2019-03-05T02:27:53.911Z,3.53
2019-03-05T02:30:28.950Z,5.53
2019-03-05T02:33:10.480Z,4.53
2019-03-05T02:35:57.269Z,4.00
2019-03-05T02:38:45.886Z,3.10
2019-03-05T02:41:20.472Z,6.73
2019-03-05T02:44:01.108Z,6.17
2019-03-05T02:46:38.541Z,4.73
2019-03-05T02:49:19.761Z,4.57
2019-03-05T02:52:04.910Z,5.20
2019-03-05T02:54:48.842Z,8.77
2019-03-05T02:57:19.730Z,6.17
2019-03-05T02:59:48.621Z,6.43
2019-03-05T03:02:24.698Z,4.07
2019-03-05T03:05:03.977Z,5.87
2019-03-05T03:07:36.939Z,6.27
2019-03-05T03:10:14.773Z,5.23
2019-03-05T03:12:43.699Z,5.10
2019-03-05T03:15:13.009Z,5.87
2019-03-05T03:17:42.263Z,5.47
2019-03-05T03:20:13.158Z,3.03
2019-03-05T03:22:42.082Z,8.30
2019-03-05T03:25:13.862Z,4.50
2019-03-05T03:27:42.860Z,3.50
2019-03-05T03:30:14.467Z,5.17
2019-03-05T03:32:45.057Z,8.27
2019-03-05T03:35:15.630Z,5.70
2019-03-05T03:37:44.439Z,2.33
2019-03-05T03:40:18.559Z,4.53
2019-03-05T03:42:47.817Z,6.17
2019-03-05T03:45:21.735Z,5.70
2019-03-05T03:47:50.640Z,2.53
2019-03-05T03:50:19.923Z,4.60
2019-03-05T03:52:48.764Z,2.87
2019-03-05T03:55:18.152Z,6.60
2019-03-05T03:57:48.328Z,6.20
2019-03-05T04:00:23.774Z,5.60
2019-03-05T04:02:54.520Z,4.80
2019-03-05T04:05:24.512Z,2.30
2019-03-05T04:07:53.393Z,4.37
2019-03-05T04:10:24.505Z,4.27
2019-03-05T04:12:53.878Z,3.03
2019-03-05T04:15:24.298Z,4.00
2019-03-05T04:17:54.166Z,2.53
2019-03-05T04:20:29.526Z,2.83
2019-03-05T04:22:58.406Z,1.30
2019-03-05T04:25:27.350Z,1.73
2019-03-05T04:27:56.163Z,4.30
2019-03-05T04:30:25.153Z,1.67
2019-03-05T04:32:55.729Z,5.07
2019-03-05T04:35:24.543Z,5.33
2019-03-05T04:37:53.589Z,3.30
2019-03-05T04:40:22.535Z,2.47
2019-03-05T04:42:51.943Z,2.83
2019-03-05T04:45:40.081Z,2.90
2019-03-05T04:48:09.215Z,2.43
2019-03-05T04:50:45.933Z,4.23
2019-03-05T04:53:14.895Z,2.33
2019-03-05T04:55:44.353Z,2.90
2019-03-05T04:58:13.332Z,1.93
2019-03-05T05:00:42.220Z,4.23
2019-03-05T05:03:11.152Z,6.33
2019-03-05T05:05:40.686Z,3.70
2019-03-05T05:08:09.492Z,3.80
2019-03-05T05:13:27.833Z,1.40
2019-03-05T05:15:56.718Z,1.60
2019-03-05T05:18:27.429Z,1.73
2019-03-05T05:20:57.265Z,4.90
2019-03-05T05:23:28.439Z,4.40
2019-03-05T05:25:57.606Z,2.80
2019-03-05T05:28:27.076Z,2.50
2019-03-05T05:30:56.129Z,2.57
2019-03-05T05:33:26.180Z,2.43
2019-03-05T05:35:55.855Z,1.73
2019-03-05T05:38:24.762Z,3.57
2019-03-05T05:40:53.664Z,3.60
2019-03-05T05:43:25.151Z,2.13
2019-03-05T05:45:54.916Z,3.30
2019-03-05T05:48:24.307Z,3.17
2019-03-05T05:50:54.049Z,2.60
2019-03-05T05:53:23.047Z,3.90
2019-03-05T05:55:51.941Z,2.87
2019-03-05T05:58:25.744Z,3.53
2019-03-05T06:00:56.549Z,2.10
2019-03-05T06:03:25.470Z,3.03
2019-03-05T06:05:54.747Z,3.30
2019-03-05T06:08:23.642Z,7.60
2019-03-05T06:10:53.229Z,6.00
2019-03-05T06:13:22.276Z,3.17
2019-03-05T06:15:53.398Z,5.13
2019-03-05T06:18:24.707Z,2.53
2019-03-05T06:20:53.575Z,3.57
2019-03-05T06:23:23.629Z,4.73
2019-03-05T06:25:55.012Z,3.57
2019-03-05T06:28:24.773Z,2.67
2019-03-05T06:30:53.671Z,3.73
2019-03-05T06:33:23.444Z,2.73
2019-03-05T06:35:53.909Z,4.53
2019-03-05T06:38:23.603Z,3.77
2019-03-05T06:40:54.126Z,5.20
2019-03-05T06:43:24.825Z,3.37
2019-03-05T06:45:54.066Z,3.13
2019-03-05T06:48:22.865Z,4.17
2019-03-05T06:50:51.721Z,2.03
2019-03-05T06:53:21.110Z,3.67
2019-03-05T06:55:50.019Z,4.70
2019-03-05T06:58:18.978Z,3.07
2019-03-05T07:00:49.391Z,5.00
2019-03-05T07:03:18.480Z,6.47
2019-03-05T07:06:23.639Z,3.07
2019-03-05T07:09:05.077Z,6.37
2019-03-05T07:15:06.181Z,2.97
2019-03-05T07:17:48.156Z,5.40
2019-03-05T07:20:54.405Z,4.05
2019-03-05T07:23:52.084Z,2.37
2019-03-05T07:26:21.885Z,8.67
2019-03-05T07:28:51.621Z,7.07
2019-03-05T07:31:22.001Z,3.80
2019-03-05T07:33:51.904Z,6.03
2019-03-05T07:36:21.558Z,1.97
2019-03-05T07:38:50.740Z,3.70
2019-03-05T07:41:20.211Z,6.95
2019-03-05T07:43:49.903Z,6.10
2019-03-05T07:46:18.874Z,5.07
2019-03-05T07:48:48.111Z,5.58
2019-03-05T07:51:17.101Z,7.67
2019-03-05T07:53:47.567Z,4.77
2019-03-05T07:56:17.463Z,6.07
2019-03-05T07:58:49.135Z,4.70
2019-03-05T08:01:22.570Z,5.43
2019-03-05T08:03:51.361Z,2.40
2019-03-05T08:06:20.824Z,3.77
2019-03-05T08:09:25.652Z,4.83
2019-03-05T08:11:57.606Z,3.63
2019-03-05T08:14:48.635Z,3.70
2019-03-05T08:17:17.555Z,4.70
2019-03-05T08:19:46.434Z,4.23
2019-03-05T08:22:17.562Z,7.03
2019-03-05T08:24:46.521Z,4.07
2019-03-05T08:27:15.367Z,3.70
2019-03-05T08:29:44.293Z,5.23
2019-03-05T08:32:15.537Z,2.17
2019-03-05T08:34:44.762Z,4.27
2019-03-05T08:37:13.937Z,7.03
2019-03-05T08:39:53.217Z,4.87
2019-03-05T08:42:27.074Z,5.37
2019-03-05T08:44:56.025Z,6.83
2019-03-05T08:47:25.270Z,7.10
2019-03-05T08:49:54.132Z,5.67
2019-03-05T08:52:22.915Z,7.13
2019-03-05T08:54:52.049Z,5.50
2019-03-05T08:57:21.261Z,5.43
2019-03-05T08:59:50.040Z,8.83
2019-03-05T09:02:18.836Z,6.47
2019-03-05T09:04:47.637Z,5.97
2019-03-05T09:07:17.501Z,5.83
2019-03-05T09:09:46.453Z,9.10
2019-03-05T09:12:15.444Z,6.13
2019-03-05T09:14:44.656Z,5.27
2019-03-05T09:17:13.662Z,4.80
2019-03-05T09:19:43.226Z,8.40
2019-03-05T09:22:11.997Z,8.87
2019-03-05T09:24:41.251Z,6.40
2019-03-05T09:27:11.037Z,9.20
2019-03-05T09:29:43.138Z,8.23
2019-03-05T09:32:14.447Z,7.30
2019-03-05T09:34:46.176Z,9.10
2019-03-05T09:37:19.708Z,6.57
2019-03-05T09:39:52.734Z,6.80
2019-03-05T09:42:22.548Z,7.53
2019-03-05T09:44:51.451Z,9.80
2019-03-05T09:47:28.077Z,6.27
2019-03-05T09:49:57.022Z,9.33
2019-03-05T09:52:26.036Z,8.90
2019-03-05T09:54:55.740Z,12.37
2019-03-05T09:57:28.553Z,9.00
2019-03-05T09:59:59.286Z,5.27
2019-03-05T10:11:41.180Z,7.53
2019-03-05T10:14:17.455Z,13.00
2019-03-05T10:19:21.540Z,13.97
2019-03-05T10:21:52.142Z,10.83
2019-03-05T10:24:25.368Z,6.13
2019-03-05T10:26:57.964Z,10.10
2019-03-05T10:29:27.842Z,7.60
2019-03-05T10:31:57.107Z,6.20
2019-03-05T10:34:27.093Z,7.37
2019-03-05T10:36:56.975Z,8.03
2019-03-05T10:39:32.603Z,10.87
2019-03-05T10:42:03.001Z,7.67
2019-03-05T10:44:53.630Z,9.43
2019-03-05T10:47:22.898Z,14.13
2019-03-05T10:49:55.064Z,12.10
2019-03-05T10:52:29.163Z,8.53
2019-03-05T10:55:00.922Z,8.20
2019-03-05T11:04:11.801Z,8.43
2019-03-05T11:06:41.485Z,9.37
2019-03-05T11:09:13.557Z,5.93
2019-03-05T11:11:46.911Z,12.63
2019-03-05T11:14:24.749Z,12.57
2019-03-05T11:16:54.377Z,11.23
2019-03-05T11:19:25.462Z,9.97
2019-03-05T11:21:54.570Z,9.33
2019-03-05T11:24:26.469Z,9.57
2019-03-05T11:26:56.727Z,9.60
2019-03-05T11:29:39.685Z,9.00
2019-03-05T11:32:09.652Z,7.50
2019-03-05T11:34:42.785Z,9.43
2019-03-05T11:37:11.933Z,12.20
2019-03-05T11:39:42.051Z,8.63
2019-03-05T11:42:15.202Z,9.97
2019-03-05T11:44:58.833Z,10.07
2019-03-05T11:51:06.941Z,10.97
2019-03-05T11:54:23.844Z,11.00
2019-03-05T11:56:53.450Z,10.67
2019-03-05T11:59:22.724Z,8.30
2019-03-05T12:01:54.462Z,9.40
2019-03-05T12:04:23.453Z,9.80
2019-03-05T12:06:52.549Z,6.73
2019-03-05T12:09:21.826Z,6.40
2019-03-05T12:11:54.659Z,6.90
2019-03-05T12:14:23.719Z,9.50
2019-03-05T12:16:52.788Z,7.63
2019-03-05T12:19:27.723Z,8.73
2019-03-05T12:22:01.032Z,8.50
2019-03-05T12:24:35.558Z,9.57
2019-03-05T12:27:06.271Z,8.27
2019-03-05T12:29:35.509Z,8.30
2019-03-05T12:32:07.744Z,8.03
2019-03-05T12:37:28.556Z,7.10
2019-03-05T12:39:59.912Z,6.07
2019-03-05T12:42:31.537Z,8.63
2019-03-05T12:48:43.930Z,4.97
2019-03-05T12:51:13.672Z,11.43
2019-03-05T12:57:14.289Z,7.90
2019-03-05T12:59:44.450Z,6.70
2019-03-05T13:02:14.311Z,7.40
2019-03-05T13:04:50.464Z,5.60
2019-03-05T13:07:43.755Z,6.13
2019-03-05T13:10:18.471Z,7.23
2019-03-05T13:12:49.790Z,8.50
2019-03-05T13:15:22.817Z,11.07
2019-03-05T13:18:01.231Z,7.97
2019-03-05T13:20:30.619Z,7.87
2019-03-05T13:23:08.716Z,6.40
2019-03-05T13:25:33.493Z,6.13
2019-03-05T13:28:04.163Z,6.00
2019-03-05T13:30:33.900Z,6.83
2019-03-05T13:33:05.029Z,6.20
2019-03-05T13:35:34.014Z,6.70
2019-03-05T13:38:09.454Z,4.03
2019-03-05T13:40:41.385Z,9.10
2019-03-05T13:43:14.994Z,12.23
2019-03-05T13:45:49.147Z,15.33
2019-03-05T13:48:23.536Z,7.13
2019-03-05T13:51:28.672Z,7.50
2019-03-05T13:54:05.825Z,8.63
2019-03-05T13:56:59.757Z,8.30
2019-03-05T13:59:46.454Z,9.60
2019-03-05T14:14:44.697Z,8.83
2019-03-05T14:17:15.353Z,7.03
2019-03-05T14:19:44.471Z,7.10
2019-03-05T14:22:13.554Z,13.83
2019-03-05T14:24:42.839Z,7.73
2019-03-05T14:27:12.513Z,8.23
2019-03-05T14:29:41.808Z,10.27
2019-03-05T14:32:11.685Z,10.67
2019-03-05T14:34:40.930Z,9.07
2019-03-05T14:37:11.839Z,6.63
2019-03-05T14:39:45.387Z,11.27
2019-03-05T14:42:17.151Z,11.23
2019-03-05T14:44:46.680Z,8.93
2019-03-05T14:47:15.816Z,7.17
2019-03-05T14:49:44.960Z,7.60
2019-03-05T14:52:14.147Z,8.50
2019-03-05T14:54:51.635Z,5.73
2019-03-05T14:57:20.781Z,9.83
2019-03-05T14:59:49.935Z,4.13
2019-03-05T15:02:21.454Z,8.23
2019-03-05T15:04:50.422Z,6.17
2019-03-05T15:07:19.412Z,6.03
2019-03-05T15:09:51.287Z,6.33
2019-03-05T15:12:21.794Z,6.40
2019-03-05T15:14:50.914Z,8.87
2019-03-05T15:17:20.468Z,10.30
2019-03-05T15:19:49.589Z,8.83
2019-03-05T15:22:19.878Z,7.57
2019-03-05T15:24:50.359Z,6.43
2019-03-05T15:27:20.535Z,7.20
2019-03-05T15:29:50.293Z,11.17
2019-03-05T15:32:19.382Z,14.37
2019-03-05T15:34:48.287Z,7.43
2019-03-05T15:37:17.393Z,7.80
2019-03-05T15:39:49.097Z,8.23
2019-03-05T15:42:18.357Z,7.90
2019-03-05T15:44:57.333Z,9.07
2019-03-05T15:50:27.943Z,9.27
2019-03-05T15:56:20.960Z,8.77
2019-03-05T16:02:26.546Z,6.60
2019-03-05T16:08:01.132Z,6.00
2019-03-05T16:10:39.310Z,7.40
2019-03-05T16:30:47.395Z,10.47
2019-03-05T16:33:23.553Z,8.20
2019-03-05T16:42:42.341Z,7.60
2019-03-05T16:45:18.987Z,8.00
2019-03-05T16:47:50.025Z,6.67
2019-03-05T16:50:22.520Z,7.70
2019-03-05T16:52:59.333Z,7.13
2019-03-05T16:55:32.993Z,25.87
2019-03-05T16:58:04.007Z,19.23
2019-03-05T17:00:56.989Z,18.67
2019-03-05T17:03:35.824Z,13.10
2019-03-05T17:06:25.765Z,5.63
2019-03-05T17:09:08.307Z,8.73
2019-03-05T17:11:42.275Z,11.47
2019-03-05T17:14:11.548Z,8.87
2019-03-05T17:16:41.608Z,12.27
2019-03-05T17:19:10.908Z,7.93
2019-03-05T17:21:45.070Z,6.93
2019-03-05T17:24:19.001Z,5.97
2019-03-05T18:57:19.057Z,4.90
2019-03-05T18:59:51.460Z,7.00
2019-03-05T19:05:21.589Z,11.30
2019-03-05T19:07:55.619Z,9.77
2019-03-05T19:10:30.455Z,11.73
2019-03-05T19:13:01.745Z,10.63
2019-03-05T19:15:34.071Z,13.83
2019-03-05T19:18:12.387Z,12.47
2019-03-05T20:04:47.643Z,11.73
2019-03-05T20:07:18.267Z,8.97
2019-03-05T20:09:47.326Z,11.17
2019-03-05T20:12:16.922Z,15.00
2019-03-05T20:14:46.248Z,14.67
2019-03-05T20:17:17.498Z,11.03
2019-03-05T20:19:46.611Z,14.67
2019-03-05T20:22:17.833Z,15.10
2019-03-05T20:24:48.190Z,14.63
2019-03-05T20:27:17.292Z,10.30
2019-03-05T20:29:46.498Z,11.33
2019-03-05T20:32:15.603Z,10.53
2019-03-05T20:34:46.597Z,14.77
2019-03-05T20:37:18.087Z,15.37
2019-03-05T20:39:47.264Z,12.83
2019-03-05T20:42:17.118Z,11.90
2019-03-05T20:44:47.737Z,14.30
2019-03-05T20:47:16.795Z,18.67
2019-03-05T20:49:47.898Z,14.23
2019-03-05T20:52:17.160Z,12.70
2019-03-05T20:54:46.376Z,14.40
2019-03-05T20:57:17.077Z,10.30
2019-03-05T20:59:52.299Z,14.83
2019-03-05T21:02:21.252Z,14.57
2019-03-05T21:04:50.297Z,15.80
2019-03-05T21:07:20.928Z,12.57
2019-03-05T21:09:49.880Z,17.47
2019-03-05T21:12:18.946Z,15.20
2019-03-05T21:14:47.896Z,15.93
2019-03-05T21:17:19.889Z,14.43
2019-03-05T21:19:50.454Z,13.90
2019-03-05T21:22:19.466Z,12.40
2019-03-05T21:24:48.552Z,15.13
2019-03-05T21:27:19.115Z,15.73
2019-03-05T21:29:48.223Z,13.93
2019-03-05T21:32:17.574Z,17.00
2019-03-05T21:34:47.034Z,15.83
2019-03-05T21:37:16.246Z,18.33
2019-03-05T21:39:46.597Z,16.60
2019-03-05T21:42:16.195Z,17.70
2019-03-05T21:44:45.176Z,12.10
2019-03-05T21:47:14.078Z,15.63
2019-03-05T21:49:43.159Z,17.80
2019-03-05T21:52:12.464Z,16.07
2019-03-05T21:54:42.230Z,23.83
2019-03-05T21:57:11.289Z,16.60
2019-03-05T21:59:43.288Z,14.03
2019-03-05T22:02:13.201Z,15.20
2019-03-05T22:04:42.039Z,20.03
2019-03-05T22:07:11.194Z,17.83
2019-03-05T22:09:40.046Z,12.90
2019-03-05T22:12:09.344Z,18.70
2019-03-05T22:14:38.784Z,16.63
2019-03-05T22:17:08.691Z,13.00
2019-03-05T22:19:37.703Z,16.03
2019-03-05T22:22:06.675Z,18.77
2019-03-05T22:24:35.575Z,16.73
2019-03-05T22:27:04.467Z,13.37
2019-03-05T22:29:33.385Z,16.27
2019-03-05T22:32:04.427Z,13.63
2019-03-05T22:34:33.326Z,19.17
2019-03-05T22:37:02.247Z,17.00
2019-03-05T22:39:31.091Z,19.30
2019-03-05T22:41:59.944Z,13.73
2019-03-05T22:44:28.845Z,16.40
2019-03-05T22:46:57.659Z,16.97
2019-03-05T22:49:26.446Z,19.47
2019-03-05T22:51:55.363Z,20.47
2019-03-05T22:54:25.077Z,17.03
2019-03-05T22:56:55.354Z,14.20
2019-03-05T22:59:25.278Z,15.20
2019-03-05T23:01:54.136Z,21.77
2019-03-05T23:04:26.085Z,16.00
2019-03-05T23:06:54.907Z,17.10
2019-03-05T23:09:24.643Z,14.93
2019-03-05T23:11:53.499Z,20.83
2019-03-05T23:14:22.459Z,20.73
2019-03-05T23:16:51.220Z,20.30
2019-03-05T23:19:20.349Z,17.47
2019-03-05T23:21:49.067Z,19.53
2019-03-05T23:24:17.996Z,23.00
2019-03-05T23:26:46.768Z,15.30
2019-03-05T23:29:16.530Z,20.17
2019-03-05T23:31:45.474Z,22.63
2019-03-05T23:34:18.186Z,24.37
2019-03-05T23:36:44.680Z,20.40
2019-03-05T23:39:16.815Z,19.13
2019-03-05T23:41:45.791Z,15.03
2019-03-05T23:44:14.941Z,20.30
2019-03-05T23:46:44.036Z,18.70
2019-03-05T23:49:12.841Z,20.93
2019-03-05T23:51:41.615Z,19.13
2019-03-05T23:54:10.319Z,19.83
2019-03-05T23:56:39.193Z,17.23
2019-03-05T23:59:07.918Z,13.97
